EA1L-13
43.20.37N 005.51.13W
IN73BI aprs.fi
zuletzt gehoert:
2022-08-10T22:55:05Z
zuerst gehoert:
2020-02-10T15:00:08Z

Wind 182°/000kn
in Böen bis zu 003kn
Temp 21.11C
Regen 0.0mm
letzte 24h 0.0mm
seit Mitternacht 0.0mm
Baro 1014.5h
Feuchte 96%

APRS Oviedo [IN73BI], 2 Stunde(n), EA1L-13 [00:59:04, 0s].
EA1L 43.20.38N 005.51.13WIN73BI 0.322km 345°NNW22:48:53ZWind 182°/000kn, Böen bis 003kn, Temp 21.11c, Regen 0.0mm, letzte 24h 0.0mm, seit 0h 0.0mm, Baro 1014.5h, Hum: 96%(3EA1L-13)
ea1l@ure.es V=13.4V(2EA1L)
EA1HWX 43.19.28N 005.50.98WIN73BH 1.750km 176°S22:32:03ZMMDVM MMDVM HS Dual Hat 439.8250/430.4000 CC11(3EA1HWX-1)
DMO - UHF 439.7250/431.0000 CC11(2EA1HWX-2)
MMDVM DMO 222.3400/222.3400 CC1(2EA1HWX-10)
EB1JAJ 43.21.72N 005.51.82WIN73BI 2.950km 340°NNW22:31:40ZMMDVM MMDVM HS Dual Hat 438.0250/431.0250 CC1(3EB1JAJ-2)
LEHU 43.22.63N 005.49.57WIN73CJ 4.897km 24°NNE22:30:03ZHelipuerto del HUCA: LEAS 102146Z 20003KT 160V260 3600 0800NW R29/P2000 R11/0500D BCFG BKN004 21/21 Q1016 TEMPO 1500=
ED1ZAU 43.23.04N 005.52.75WIN73BJ 5.692km 337°NNW22:32:13ZRD625 438.5000/430.9000 CC1
EA1ABW 43.24.77N 005.47.77WIN73CJ 9.543km 28°NNE22:30:29ZMMDVM MMDVM HS Hat 439.8250/439.8250 CC1(3EA1ABW-2)
MMDVM MMDVM HS Hat 439.8250/439.8250 CC1(2EA1ABW-1)
LEMR 43.25.83N 005.49.60WIN73CK 10.578km 11°N22:30:03ZAerodromo de la Morgal (123.500MHz): LEAS 102146Z 20003KT 160V260 3600 0800NW R29/P2000 R11/0500D BCFG BKN004 21/21 Q1016 TEMPO 1500=
LEGM 43.26.15N 005.49.84WIN73CK 11.128km N22:30:03ZHelipuerto de La Morgal (123.500MHz): LEAS 102146Z 20003KT 160V260 3600 0800NW R29/P2000 R11/0500D BCFG BKN004 21/21 Q1016 TEMPO 1500=
EA1IMW 43.14.36N 005.46.93WIN73CF 12.218km 153°SSE22:31:45ZGRUPO RADIO GALENA (GRG) 430.4500/430.4500 CC1(3EA1IMW-1)
EA1IPU 43.26.21N 005.46.62WIN73CK 12.632km 28°NNE22:30:54ZMMDVM MMDVM HS Hat 439.8000/439.8000 CC1(3EA1IPU-1)
EA1JBL 43.12.28N 005.47.42WIN73CE 15.500km 161°SSE22:30:16ZMMDVM DVMega 435.3000/435.3000 CC1
EB1DGC 43.12.60N 005.45.59WIN73CF 15.940km 152°SSE22:31:15ZMMDVM MMDVM HS Hat 433.4500/433.4500 CC1
EA1HWA 43.12.00N 005.47.40WIN73CE 16.023km 162°SSE22:30:21ZMMDVM MMDVM HS Hat 433.4500/433.4500 CC1
ED1ZAY 43.29.47N 005.56.54WIN73AL 18.669km 337°NNW22:32:18ZRD625 438.3000/430.7000 CC1
ED1ZAS 43.27.52N 005.40.17WIN73DL 19.966km 47°NE22:32:16ZRD985 438.2250/430.6250 CC1
EA1RCG 43.09.45N 005.49.78WIN73CD 20.017km 175°S22:30:48ZGRUPO RADIO GALENA (GRG) 430.4500/430.4500 CC1(3EA1RCG-3)
EA1FLQ 43.22.00N 005.36.35WIN73EI 20.103km 80°E22:31:14ZMMDVM DVMega 430.9750/430.9750 CC1
ED1ZAE 43.27.99N 005.40.54WIN73DL 20.201km 44°NE22:46:05Z400 M. PICO SAN MARTIN (GIJON) 13.3V,26.6C(3ED1ZAE-3)
EA1CLT 43.32.67N 005.54.43WIN73BN 23.521km 349°N22:30:28Z440 MMDVM Voice 432.10000MHz +0.0000MHz, APRS for DMRGateway(3EA1CLT-D)
440 MMDVM Voice 432.10000MHz +0.0000MHz, EA1CLT_Pi-Star_ND(2EA1CLT-N)
MMDVM MMDVM HS Hat 432.1000/432.1000 CC1(2EA1CLT-2)
EA1AHA 43.32.72N 005.54.38WIN73BN 23.599km 349°N22:31:57ZWind 315°/003kn, Böen bis 004kn, Temp 22.22c, Regen 0.0mm, letzte 24h 0.0mm, seit 0h 0.0mm, Baro 1017.0h, Hum: 92%(3EA1AHA-13)
EB1TK 43.32.22N 005.42.32WIN73DM 25.178km 28°NNE22:50:19ZWind 266°/005kn, Böen bis 008kn, Temp 21.11c, Regen 0.0mm, letzte 24h 0.0mm, seit 0h 0.0mm, Baro 1018.3h, Hum: 95%(3EB1TK-13)
EA1FFA 43.31.53N 005.40.64WIN73DM 25.241km 34°NE22:31:32ZMMDVM MMDVM HS Hat 438.8000/438.8000 CC1(3EA1FFA-1)
EA1FPN 43.32.39N 005.42.17WIN73DM 25.528km 28°NNE22:30:32ZMMDVM MMDVM HS Hat 439.8750/439.8750 CC1
EA1DZR 43.31.48N 005.40.00WIN73EM 25.639km 35°NE22:31:53ZMMDVM DVMega 431.1000/431.1000 CC1(3EA1DZR-1)
MMDVM MMDVM HS Hat 432.1000/432.1000 CC2(2EA1DZR-2)
MMDVM DV ADER 434.3500/434.3500 CC1(2EA1DZR-4)
EA1IEJ 43.31.81N 005.40.17WIN73DM 26.024km 34°NE22:32:02ZMMDVM DMO 222.3400/222.3400 CC1(3EA1IEJ-11)
MMDVM MMDVM HS Hat 438.8500/438.8500 CC6(2EA1IEJ-1)
LEEL 43.32.98N 005.41.71WIN73DN 26.783km 28°NNE22:30:03ZHelipuerto de El Musel: LEAS 102146Z 20003KT 160V260 3600 0800NW R29/P2000 R11/0500D BCFG BKN004 21/21 Q1016 TEMPO 1500=
EB1GEM 43.30.00N 005.36.07WIN73EM 27.147km 48°NE22:55:45ZWX3in1Plus2.0 U=13.3V,T=??.?C/??.?F(3EB1GEM-3)
ED1ZAD 43.07.90N 005.38.52WIN73ED 28.415km 143°SE22:57:39ZED1ZAD-3 APRS Digi/Igate(3ED1ZAD-3)
EA1HJA 43.28.10N 005.30.45WIN73FL 31.373km 62°ENE22:50:41Z IN73FL WX3IN1+ 2.0 - V=14.0V,TX TEMP=47.6C
IN73FL WX3IN1+ 2.0 - V=13.2V,TX TEMP=37.8C(2EA1HJA-2)
EA1FHR 43.28.72N 005.26.41WIN73GL 36.739km 64°ENE22:30:51ZMMDVM MMDVM HS Hat 439.1500/439.1500 CC1
EA1JAY 43.29.33N 005.26.78WIN73GL 36.812km 63°ENE22:30:05Z434.525MHz Nodo TETRA DMO(3EA1JAY-4)
EA1JAY(2EA1JAY-2)
EA1HWD 43.28.96N 005.26.30WIN73GL 37.076km 64°ENE22:30:55ZMMDVM MMDVM HS Hat 434.2500/434.2500 CC1
EC1KV 43.34.01N 006.16.01WIN63UN 42.160km 307°NW22:33:51Z VOLT.=13.7 V - TEMP.=??.? C(3EC1KV-1)
LETN 43.20.05N 006.22.69WIN63TI 42.619km 270°W22:30:04ZAerodromo de La Curiscada (Tineo): LEAS 102146Z 20003KT 160V260 3600 0800NW R29/P2000 R11/0500D BCFG BKN004 21/21 Q1016 TEMPO 1500=

aprs.pl 5.0.011w DL3EL © 2006-2021 [4288117]